OERK/RUH METAR and TAF weather

Enter ICAO airport designator
Station Type Date Time Source
OERK METAR 2021/03/05 00:00 UTC NOAA

OERK 050000Z 29002KT CAVOK 22/05 Q1015 NOSIG


Station Type Date Time Source
OERK Decoded METAR 2021/03/05 00:00 UTC NOAA

King Khaled International Airport, Saudi Arabia (OERK) 24-56N 046-43E 612M
Mar 04, 2021 - 07:00 PM EST / 2021.03.05 0000 UTC
Wind: from the WNW (290 degrees) at 2 MPH (2 KT):0
Visibility: greater than 7 mile(s):0
Temperature: 71 F (22 C)
Dew Point: 41 F (5 C)
Relative Humidity: 32%
Pressure (altimeter): 29.97 in. Hg (1015 hPa)
ob: OERK 050000Z 29002KT CAVOK 22/05 Q1015 NOSIG
cycle: 0

Station Type Date Time Source
OERK TAF 2021/03/04 18:33 UTC NOAA

TAF OERK 041700Z 0418/0524 18013KT CAVOK
BECMG 0500/0502 30010KT
BECMG 0506/0508 35018KT 6000 NSC

Example: see airport list